Time;durP1;ratioP1;P1;durP2;ratioP2;P2;SDS_P1;SDS_P2;PMS_P1;PMS_P2;Temp;Humidity;BMP_temperature;BMP_pressure;BME280_temperature;BME280_humidity;BME280_pressure;Samples;Min_cycle;Max_cycle;Signal;HPM_P1;HPM_P2
2023/11/30 09:51:53;;;;;;;15.83;6.93;;;;;;;;;;5681494;23;20831;-75
2023/11/30 10:10:31;;;;;;;13.07;7.53;;;;;;;;;;5679148;23;20485;-76
2023/11/30 10:12:59;;;;;;;13.67;7.60;;;;;;;;;;5034418;28;20537;-76
2023/11/30 10:15:40;;;;;;;14.87;8.80;;;;;;;;;;5041563;28;20520;-75
2023/11/30 10:18:10;;;;;;;15.20;6.50;;;;;;;;;;5030067;28;20506;-75
2023/11/30 10:20:38;;;;;;;11.90;6.53;;;;;;;;;;5030865;28;20438;-76
2023/11/30 10:23:27;;;;;;;12.70;6.83;;;;;;;;;;5028973;28;20889;-75
2023/11/30 10:29:11;;;;;;;11.80;6.33;;;;;;;;;;5027255;28;20489;-76
2023/11/30 10:31:42;;;;;;;16.80;9.13;;;;;;;;;;5034723;28;20540;-73
2023/11/30 10:34:13;;;;;;;16.97;8.10;;;;;;;;;;5037043;28;21095;-76
2023/11/30 10:36:51;;;;;;;24.53;10.97;;;;;;;;;;5039050;28;20507;-74
2023/11/30 10:39:41;;;;;;;17.93;10.60;;;;;;;;;;5034416;28;20491;-75
2023/11/30 10:45:51;;;;;;;13.20;6.80;;;;;;;;;;4873617;27;6949287;-77
2023/11/30 10:48:24;;;;;;;18.20;6.97;;;;;;;;;;5157597;27;20606;-78
2023/11/30 10:51:07;;;;;;;14.40;7.53;;;;;;;;;;5158399;27;20453;-77
2023/11/30 10:53:50;;;;;;;13.33;6.83;;;;;;;;;;5158517;27;20454;-79
2023/11/30 10:56:26;;;;;;;15.53;7.40;;;;;;;;;;5157684;27;20450;-79
2023/11/30 11:01:50;;;;;;;17.20;8.90;;;;;;;;;;5141780;27;20877;-77
2023/11/30 11:04:26;;;;;;;20.43;8.50;;;;;;;;;;5131578;27;20512;-77
2023/11/30 11:07:09;;;;;;;12.50;8.10;;;;;;;;;;5130764;27;20446;-77
2023/11/30 11:09:45;;;;;;;12.97;7.60;;;;;;;;;;5136274;27;20473;-77
2023/11/30 11:12:20;;;;;;;15.27;9.00;;;;;;;;;;5143361;27;20446;-78
2023/11/30 11:14:51;;;;;;;17.97;9.10;;;;;;;;;;5149728;27;20507;-76
2023/11/30 11:17:28;;;;;;;21.07;9.73;;;;;;;;;;5147199;27;20523;-75
2023/11/30 11:22:56;;;;;;;14.63;7.87;;;;;;;;;;5144424;27;20471;-78
2023/11/30 11:25:24;;;;;;;14.10;7.67;;;;;;;;;;5140316;27;20506;-77
2023/11/30 11:27:51;;;;;;;11.20;6.37;;;;;;;;;;5147928;27;20610;-76
2023/11/30 11:30:20;;;;;;;13.43;7.90;;;;;;;;;;5151311;27;20450;-78
2023/11/30 11:32:50;;;;;;;11.30;8.13;;;;;;;;;;5152636;27;20447;-75
2023/11/30 11:35:18;;;;;;;16.30;7.40;;;;;;;;;;5151490;27;20878;-76
2023/11/30 11:37:45;;;;;;;10.43;7.20;;;;;;;;;;5128601;27;20449;-77
2023/11/30 11:40:17;;;;;;;15.00;6.77;;;;;;;;;;5152432;27;20516;-77
2023/11/30 11:42:44;;;;;;;13.40;7.57;;;;;;;;;;5149617;27;20520;-76
2023/11/30 11:45:12;;;;;;;11.77;7.70;;;;;;;;;;5151408;27;20586;-78
2023/11/30 11:47:39;;;;;;;17.60;7.80;;;;;;;;;;5154345;27;20447;-78
2023/11/30 11:50:10;;;;;;;13.13;7.23;;;;;;;;;;5152381;27;20443;-76
2023/11/30 11:52:37;;;;;;;14.87;8.00;;;;;;;;;;5150916;27;20439;-76
2023/11/30 11:55:08;;;;;;;26.03;13.57;;;;;;;;;;5145511;27;21089;-77
2023/11/30 11:57:36;;;;;;;14.40;9.13;;;;;;;;;;5117303;28;20540;-77
2023/11/30 12:00:13;;;;;;;25.20;11.43;;;;;;;;;;5115567;28;20452;-77
2023/11/30 12:02:43;;;;;;;15.97;7.97;;;;;;;;;;5116104;28;20455;-76
2023/11/30 12:05:15;;;;;;;14.90;9.33;;;;;;;;;;5113899;28;20479;-77
2023/11/30 12:07:50;;;;;;;15.47;7.87;;;;;;;;;;5130227;27;20477;-75
2023/11/30 12:10:31;;;;;;;9.43;5.30;;;;;;;;;;5134617;27;20450;-78
2023/11/30 12:13:00;;;;;;;10.67;5.77;;;;;;;;;;5137067;27;20456;-76
2023/11/30 12:15:28;;;;;;;13.33;7.43;;;;;;;;;;5134631;27;20796;-76
2023/11/30 12:17:57;;;;;;;12.03;6.43;;;;;;;;;;5124991;27;20535;-77
2023/11/30 12:20:27;;;;;;;12.00;7.03;;;;;;;;;;5138028;27;20514;-77
2023/11/30 12:22:57;;;;;;;15.03;8.60;;;;;;;;;;5137941;27;20463;-77
2023/11/30 12:28:40;;;;;;;11.93;6.60;;;;;;;;;;5140736;27;20484;-77
2023/11/30 12:31:08;;;;;;;12.97;7.40;;;;;;;;;;5138964;27;20532;-78
2023/11/30 12:33:39;;;;;;;11.97;6.37;;;;;;;;;;5118221;27;20524;-78
2023/11/30 12:36:14;;;;;;;8.93;5.83;;;;;;;;;;5139389;27;20463;-77
2023/11/30 12:38:44;;;;;;;12.40;6.80;;;;;;;;;;5136265;27;20477;-79
2023/11/30 12:41:13;;;;;;;9.57;5.30;;;;;;;;;;5123081;27;20461;-77
2023/11/30 12:43:41;;;;;;;9.57;5.87;;;;;;;;;;5122837;27;20493;-77
2023/11/30 12:46:14;;;;;;;14.10;6.20;;;;;;;;;;5137644;27;20834;-77
2023/11/30 12:48:43;;;;;;;9.70;5.50;;;;;;;;;;5142380;27;20455;-78
2023/11/30 12:51:15;;;;;;;12.27;7.07;;;;;;;;;;5140298;27;20494;-78
2023/11/30 12:53:43;;;;;;;14.30;7.67;;;;;;;;;;5142207;27;20443;-78
2023/11/30 12:56:12;;;;;;;12.37;6.83;;;;;;;;;;5145394;27;20477;-81
2023/11/30 12:58:41;;;;;;;12.30;6.90;;;;;;;;;;5139073;27;20447;-78
2023/11/30 13:01:13;;;;;;;12.23;7.27;;;;;;;;;;5139279;27;20455;-80
2023/11/30 13:03:41;;;;;;;10.50;6.13;;;;;;;;;;5137760;27;20459;-77
2023/11/30 13:06:10;;;;;;;11.70;6.63;;;;;;;;;;5139549;27;20466;-78
2023/11/30 13:08:41;;;;;;;10.77;7.10;;;;;;;;;;5137411;27;20859;-77
2023/11/30 13:11:11;;;;;;;12.73;6.27;;;;;;;;;;5143205;27;20444;-77
2023/11/30 13:13:39;;;;;;;15.90;7.20;;;;;;;;;;5139806;27;20482;-78
2023/11/30 13:16:10;;;;;;;10.07;5.93;;;;;;;;;;5137520;27;20467;-78
2023/11/30 13:18:38;;;;;;;11.10;7.47;;;;;;;;;;5142023;27;20450;-79
2023/11/30 13:21:06;;;;;;;26.80;11.80;;;;;;;;;;5143079;27;20802;-80
2023/11/30 13:23:33;;;;;;;11.07;6.03;;;;;;;;;;5142784;27;20448;-78
2023/11/30 13:26:03;;;;;;;12.10;6.07;;;;;;;;;;5138906;27;20551;-79
2023/11/30 13:28:30;;;;;;;9.40;5.90;;;;;;;;;;5136813;27;20904;-77
2023/11/30 13:31:02;;;;;;;11.60;5.53;;;;;;;;;;5145127;27;20448;-79
2023/11/30 13:33:34;;;;;;;17.63;10.37;;;;;;;;;;5139938;27;21126;-79
2023/11/30 13:36:07;;;;;;;12.23;6.57;;;;;;;;;;5141104;27;20900;-78
2023/11/30 13:38:34;;;;;;;13.50;8.70;;;;;;;;;;5137631;27;20467;-78
2023/11/30 13:41:03;;;;;;;13.90;7.23;;;;;;;;;;5139520;27;20442;-78
2023/11/30 13:43:31;;;;;;;10.13;6.03;;;;;;;;;;5139323;27;20464;-77
2023/11/30 13:45:59;;;;;;;9.20;5.97;;;;;;;;;;5137974;27;20491;-77
2023/11/30 13:48:27;;;;;;;13.27;8.13;;;;;;;;;;5137938;27;20987;-77
2023/11/30 13:50:54;;;;;;;11.17;6.83;;;;;;;;;;5135182;27;20455;-79
2023/11/30 13:53:22;;;;;;;11.13;6.37;;;;;;;;;;5141896;27;20443;-79
2023/11/30 13:55:50;;;;;;;11.87;5.73;;;;;;;;;;5143432;27;20515;-79
2023/11/30 13:58:19;;;;;;;8.57;5.63;;;;;;;;;;5143568;27;20505;-79
2023/11/30 14:00:46;;;;;;;11.77;5.90;;;;;;;;;;5141828;27;20511;-79
2023/11/30 14:03:16;;;;;;;12.53;6.70;;;;;;;;;;5138657;27;20440;-79
2023/11/30 14:05:43;;;;;;;10.03;6.00;;;;;;;;;;5138291;27;20502;-79
2023/11/30 14:08:11;;;;;;;9.13;4.70;;;;;;;;;;5134090;27;20449;-78
2023/11/30 14:10:42;;;;;;;14.13;9.20;;;;;;;;;;5139976;27;20731;-77
2023/11/30 14:13:10;;;;;;;11.23;6.23;;;;;;;;;;5133075;27;20474;-78
2023/11/30 14:15:39;;;;;;;8.30;5.10;;;;;;;;;;5135958;27;20730;-78
2023/11/30 14:18:07;;;;;;;9.70;5.37;;;;;;;;;;5136672;27;20493;-78
2023/11/30 14:20:35;;;;;;;7.53;4.63;;;;;;;;;;5140606;27;20456;-78
2023/11/30 14:23:03;;;;;;;8.87;6.10;;;;;;;;;;5137372;27;20458;-78
2023/11/30 14:25:33;;;;;;;7.90;5.33;;;;;;;;;;5143876;27;20463;-79
2023/11/30 14:28:01;;;;;;;8.60;5.23;;;;;;;;;;5140607;27;20463;-78
2023/11/30 14:30:36;;;;;;;8.60;4.67;;;;;;;;;;5142415;27;20477;-78
2023/11/30 14:33:06;;;;;;;10.57;6.87;;;;;;;;;;5142051;27;20443;-78
2023/11/30 14:35:35;;;;;;;8.50;5.40;;;;;;;;;;5140060;27;20517;-77
2023/11/30 14:38:05;;;;;;;8.20;5.00;;;;;;;;;;5132789;27;20475;-77
2023/11/30 14:40:33;;;;;;;7.53;4.50;;;;;;;;;;5134083;27;20453;-78
2023/11/30 14:43:08;;;;;;;6.60;3.90;;;;;;;;;;5134030;28;20486;-76
2023/11/30 14:45:42;;;;;;;9.60;4.77;;;;;;;;;;5136105;28;20507;-77
2023/11/30 14:48:12;;;;;;;8.17;4.67;;;;;;;;;;5141587;28;20469;-78
2023/11/30 14:50:39;;;;;;;7.13;5.30;;;;;;;;;;5137880;28;20448;-77
2023/11/30 14:53:07;;;;;;;11.23;5.07;;;;;;;;;;5137752;28;20478;-77
2023/11/30 14:55:35;;;;;;;9.13;6.10;;;;;;;;;;5135400;28;20452;-77
2023/11/30 14:58:05;;;;;;;13.30;7.50;;;;;;;;;;5136639;28;20452;-78
2023/11/30 15:00:33;;;;;;;8.80;5.10;;;;;;;;;;5141914;28;20526;-79
2023/11/30 15:03:06;;;;;;;6.60;4.70;;;;;;;;;;5138970;28;20558;-78
2023/11/30 15:05:35;;;;;;;9.30;5.50;;;;;;;;;;5138062;28;20550;-79
2023/11/30 15:08:06;;;;;;;9.03;5.37;;;;;;;;;;5140737;28;20526;-78
2023/11/30 15:10:35;;;;;;;9.40;5.37;;;;;;;;;;5142393;28;20451;-78
2023/11/30 15:13:06;;;;;;;10.63;6.60;;;;;;;;;;5142537;28;20499;-78
2023/11/30 15:15:33;;;;;;;11.67;5.67;;;;;;;;;;5140381;28;20639;-77
2023/11/30 15:18:02;;;;;;;8.53;5.40;;;;;;;;;;5137682;28;20446;-78
2023/11/30 15:20:30;;;;;;;8.07;4.40;;;;;;;;;;5136561;28;20455;-79
2023/11/30 15:23:04;;;;;;;7.27;4.83;;;;;;;;;;5135451;28;20448;-79
2023/11/30 15:25:32;;;;;;;10.67;7.13;;;;;;;;;;5137169;28;21273;-79
2023/11/30 15:28:00;;;;;;;7.33;5.37;;;;;;;;;;5140270;28;20462;-79
2023/11/30 15:30:29;;;;;;;10.30;6.10;;;;;;;;;;5135140;27;20452;-78
2023/11/30 15:32:58;;;;;;;10.83;5.13;;;;;;;;;;5141907;27;20438;-78
2023/11/30 15:35:27;;;;;;;8.30;5.07;;;;;;;;;;5139427;27;20447;-78
2023/11/30 15:38:04;;;;;;;8.63;5.00;;;;;;;;;;5135695;27;20452;-78
2023/11/30 15:40:33;;;;;;;10.20;5.17;;;;;;;;;;5140396;27;20434;-78
2023/11/30 15:43:01;;;;;;;8.77;5.67;;;;;;;;;;5142241;27;20451;-79
2023/11/30 15:45:29;;;;;;;8.70;5.13;;;;;;;;;;5137512;27;20499;-79
2023/11/30 15:48:05;;;;;;;6.70;4.70;;;;;;;;;;5120784;28;20464;-79
2023/11/30 15:50:34;;;;;;;10.03;5.80;;;;;;;;;;5135434;27;20454;-78
2023/11/30 15:53:02;;;;;;;9.20;5.27;;;;;;;;;;5147299;27;20446;-79
2023/11/30 15:55:30;;;;;;;8.60;5.50;;;;;;;;;;5147766;27;20522;-80
2023/11/30 15:57:59;;;;;;;8.90;5.10;;;;;;;;;;5145623;27;20451;-78
2023/11/30 16:00:26;;;;;;;7.40;5.10;;;;;;;;;;5145179;27;20431;-78
2023/11/30 16:02:54;;;;;;;8.00;5.70;;;;;;;;;;5131257;27;20466;-78
2023/11/30 16:05:22;;;;;;;6.53;4.90;;;;;;;;;;5143866;27;20482;-78
2023/11/30 16:07:50;;;;;;;14.87;5.93;;;;;;;;;;5146373;27;20874;-79
2023/11/30 16:10:18;;;;;;;9.83;5.87;;;;;;;;;;5133532;27;20466;-77
2023/11/30 16:12:46;;;;;;;10.60;6.40;;;;;;;;;;5135332;27;20439;-78
2023/11/30 16:15:15;;;;;;;11.03;6.33;;;;;;;;;;5134774;27;20550;-79
2023/11/30 16:17:42;;;;;;;8.57;4.60;;;;;;;;;;5137436;27;20454;-78
2023/11/30 16:20:15;;;;;;;8.27;5.10;;;;;;;;;;5140678;27;20458;-77
2023/11/30 16:22:42;;;;;;;9.87;5.30;;;;;;;;;;5138857;27;20455;-79
2023/11/30 16:25:12;;;;;;;8.30;5.10;;;;;;;;;;5144417;27;20582;-78
2023/11/30 16:27:41;;;;;;;7.10;4.10;;;;;;;;;;5143219;27;20481;-79
2023/11/30 16:30:10;;;;;;;9.73;4.83;;;;;;;;;;5143770;27;20436;-80
2023/11/30 16:32:40;;;;;;;10.80;6.23;;;;;;;;;;5136279;27;20485;-77
2023/11/30 16:35:08;;;;;;;9.50;5.77;;;;;;;;;;5141986;27;20443;-79
2023/11/30 16:37:35;;;;;;;9.50;5.90;;;;;;;;;;5141965;27;20466;-80
2023/11/30 16:40:10;;;;;;;9.20;5.63;;;;;;;;;;5143269;27;20460;-80
2023/11/30 16:42:38;;;;;;;13.93;4.67;;;;;;;;;;5140847;27;20459;-80
2023/11/30 16:45:16;;;;;;;10.17;5.60;;;;;;;;;;5138095;27;20525;-78
2023/11/30 16:47:45;;;;;;;8.90;5.50;;;;;;;;;;5135329;27;20458;-76
2023/11/30 16:50:15;;;;;;;9.07;6.17;;;;;;;;;;5133260;27;20471;-78
2023/11/30 16:52:47;;;;;;;10.77;6.50;;;;;;;;;;5135448;27;20458;-79
2023/11/30 16:55:15;;;;;;;9.23;6.17;;;;;;;;;;5138600;27;20447;-80
2023/11/30 16:57:43;;;;;;;12.53;6.80;;;;;;;;;;5141285;27;20435;-77
2023/11/30 17:00:12;;;;;;;10.90;6.90;;;;;;;;;;5139438;27;20456;-79
2023/11/30 17:02:41;;;;;;;11.47;7.40;;;;;;;;;;5144644;27;20441;-79
2023/11/30 17:05:12;;;;;;;20.20;8.50;;;;;;;;;;5149891;27;20447;-79
2023/11/30 17:07:40;;;;;;;11.60;7.47;;;;;;;;;;5131836;27;20456;-80
2023/11/30 17:10:10;;;;;;;15.63;8.93;;;;;;;;;;5133987;27;20463;-78
2023/11/30 17:12:38;;;;;;;11.13;6.50;;;;;;;;;;5140197;27;20776;-78
2023/11/30 17:15:06;;;;;;;8.83;5.93;;;;;;;;;;5142995;27;20957;-78
2023/11/30 17:17:33;;;;;;;9.20;5.90;;;;;;;;;;5147388;27;20435;-77
2023/11/30 17:20:10;;;;;;;8.57;5.30;;;;;;;;;;5146424;27;20542;-77
2023/11/30 17:22:41;;;;;;;13.53;6.60;;;;;;;;;;5138161;27;20609;-78
2023/11/30 17:25:10;;;;;;;11.33;5.40;;;;;;;;;;5146697;27;20507;-80
2023/11/30 17:27:37;;;;;;;11.23;6.23;;;;;;;;;;5141859;27;20446;-78
2023/11/30 17:30:09;;;;;;;12.20;6.33;;;;;;;;;;5145758;27;20433;-80
2023/11/30 17:32:37;;;;;;;14.80;6.20;;;;;;;;;;5146479;27;20510;-78
2023/11/30 17:35:04;;;;;;;7.37;4.33;;;;;;;;;;5138755;27;20447;-79
2023/11/30 17:37:32;;;;;;;6.97;4.07;;;;;;;;;;5139571;27;20854;-78
2023/11/30 17:40:07;;;;;;;10.50;4.27;;;;;;;;;;5134248;27;20516;-78
2023/11/30 17:42:34;;;;;;;8.10;5.00;;;;;;;;;;5142743;27;20561;-80
2023/11/30 17:45:13;;;;;;;13.63;6.13;;;;;;;;;;5143048;27;20474;-78
2023/11/30 17:47:43;;;;;;;6.90;4.50;;;;;;;;;;5140471;27;20455;-80
2023/11/30 17:50:16;;;;;;;12.60;6.40;;;;;;;;;;5146253;27;20841;-79
2023/11/30 17:52:44;;;;;;;12.87;6.73;;;;;;;;;;5138835;27;20451;-79
2023/11/30 17:55:13;;;;;;;10.17;5.90;;;;;;;;;;5135460;27;20450;-80
2023/11/30 17:57:41;;;;;;;7.20;4.83;;;;;;;;;;5139316;27;20453;-80
2023/11/30 18:00:10;;;;;;;13.77;7.73;;;;;;;;;;5141238;27;20508;-80
2023/11/30 18:02:37;;;;;;;10.23;6.10;;;;;;;;;;5144825;27;20458;-80
2023/11/30 18:05:05;;;;;;;7.93;4.80;;;;;;;;;;5144901;27;20465;-77
2023/11/30 18:07:34;;;;;;;7.83;5.33;;;;;;;;;;5141386;27;20507;-77
2023/11/30 18:10:09;;;;;;;21.50;10.73;;;;;;;;;;5123296;28;20466;-79
2023/11/30 18:12:46;;;;;;;8.80;5.93;;;;;;;;;;5120480;28;20856;-77
2023/11/30 18:15:22;;;;;;;11.07;5.00;;;;;;;;;;5120527;28;20488;-77
2023/11/30 18:17:52;;;;;;;7.30;4.60;;;;;;;;;;5116706;28;20593;-77
2023/11/30 18:20:20;;;;;;;8.90;5.60;;;;;;;;;;5118268;28;20452;-80
2023/11/30 18:22:48;;;;;;;11.90;6.27;;;;;;;;;;5118951;28;20455;-77
2023/11/30 18:25:16;;;;;;;11.47;6.27;;;;;;;;;;5117080;28;20550;-77
2023/11/30 18:30:59;;;;;;;17.33;8.60;;;;;;;;;;5125315;28;20448;-80
2023/11/30 18:33:28;;;;;;;16.90;8.43;;;;;;;;;;5124318;28;20451;-78
2023/11/30 18:35:58;;;;;;;25.47;13.50;;;;;;;;;;5121161;28;20436;-80
2023/11/30 18:38:34;;;;;;;15.93;9.67;;;;;;;;;;5122057;28;20844;-77
2023/11/30 18:41:04;;;;;;;15.60;8.47;;;;;;;;;;5122114;28;20527;-79
2023/11/30 18:43:37;;;;;;;13.40;7.80;;;;;;;;;;5128320;28;20466;-79
2023/11/30 18:46:05;;;;;;;12.03;7.90;;;;;;;;;;5124423;28;20958;-81
2023/11/30 18:48:33;;;;;;;15.20;8.20;;;;;;;;;;5123806;28;20455;-78
2023/11/30 18:53:45;;;;;;;15.20;8.10;;;;;;;;;;5118550;28;20472;-79
2023/11/30 18:56:13;;;;;;;14.40;7.60;;;;;;;;;;5115351;28;20475;-80
2023/11/30 18:58:44;;;;;;;12.37;8.43;;;;;;;;;;5120001;28;20452;-79
2023/11/30 19:01:11;;;;;;;11.23;7.60;;;;;;;;;;5123326;28;20435;-79
2023/11/30 19:03:39;;;;;;;12.30;7.47;;;;;;;;;;5118442;28;20482;-80
2023/11/30 19:06:11;;;;;;;11.47;7.00;;;;;;;;;;5121169;28;20478;-79
2023/11/30 19:08:42;;;;;;;16.67;9.33;;;;;;;;;;5110484;28;20465;-82
2023/11/30 19:11:12;;;;;;;11.33;7.40;;;;;;;;;;5110104;28;20461;-81
2023/11/30 19:13:41;;;;;;;11.50;7.43;;;;;;;;;;5111546;28;20525;-80
2023/11/30 19:16:17;;;;;;;13.07;8.47;;;;;;;;;;5107237;28;20452;-77
2023/11/30 19:18:47;;;;;;;11.00;6.93;;;;;;;;;;5099967;28;20455;-78
2023/11/30 19:21:15;;;;;;;14.87;8.47;;;;;;;;;;5109399;28;20460;-78
2023/11/30 19:23:44;;;;;;;10.97;6.93;;;;;;;;;;5119087;28;20459;-81
2023/11/30 19:26:12;;;;;;;11.00;6.30;;;;;;;;;;5119506;28;20484;-78
2023/11/30 19:28:40;;;;;;;14.07;5.90;;;;;;;;;;5125521;28;20875;-79
2023/11/30 19:31:08;;;;;;;9.70;6.50;;;;;;;;;;5125436;28;20832;-79
2023/11/30 19:33:37;;;;;;;12.20;6.10;;;;;;;;;;5126009;28;20443;-79
2023/11/30 19:36:05;;;;;;;14.23;7.37;;;;;;;;;;5124698;28;20455;-79
2023/11/30 19:38:33;;;;;;;14.60;8.23;;;;;;;;;;5124026;28;20490;-78
2023/11/30 19:41:01;;;;;;;12.07;6.93;;;;;;;;;;5125453;28;20817;-78
2023/11/30 19:43:29;;;;;;;9.47;5.53;;;;;;;;;;5118430;28;20542;-79
2023/11/30 19:45:58;;;;;;;9.60;6.03;;;;;;;;;;5117355;28;20499;-79
2023/11/30 19:48:27;;;;;;;7.33;4.80;;;;;;;;;;5124538;28;20463;-79
2023/11/30 19:50:57;;;;;;;9.17;5.37;;;;;;;;;;5123485;28;20478;-79
2023/11/30 19:53:24;;;;;;;9.97;6.70;;;;;;;;;;5127289;28;20463;-79
2023/11/30 19:55:52;;;;;;;8.80;5.30;;;;;;;;;;5117704;28;20459;-78
2023/11/30 19:58:21;;;;;;;9.73;5.20;;;;;;;;;;5120537;28;20448;-79
2023/11/30 20:00:48;;;;;;;9.10;5.03;;;;;;;;;;5124006;28;20842;-78
2023/11/30 20:03:16;;;;;;;10.90;6.50;;;;;;;;;;5121953;28;20452;-80
2023/11/30 20:05:46;;;;;;;10.90;5.90;;;;;;;;;;5122979;28;20480;-79
2023/11/30 20:08:18;;;;;;;12.07;6.20;;;;;;;;;;5119336;28;20517;-78
2023/11/30 20:10:47;;;;;;;8.23;5.43;;;;;;;;;;5122882;28;20468;-79
2023/11/30 20:13:14;;;;;;;7.30;4.90;;;;;;;;;;5121990;28;20444;-79
2023/11/30 20:15:45;;;;;;;9.00;6.00;;;;;;;;;;5123118;28;20456;-80
2023/11/30 20:18:13;;;;;;;10.83;6.03;;;;;;;;;;5122020;28;20455;-79
2023/11/30 20:20:41;;;;;;;8.63;5.23;;;;;;;;;;5120883;28;20520;-79
2023/11/30 20:23:11;;;;;;;11.33;6.63;;;;;;;;;;5121171;28;20428;-79
2023/11/30 20:25:41;;;;;;;10.50;6.90;;;;;;;;;;5120323;28;20439;-80
2023/11/30 20:28:12;;;;;;;14.13;7.63;;;;;;;;;;5118411;28;20889;-79
2023/11/30 20:30:39;;;;;;;11.80;6.83;;;;;;;;;;5120217;28;20468;-79
2023/11/30 20:33:12;;;;;;;10.17;7.37;;;;;;;;;;5120171;28;20459;-79
2023/11/30 20:35:40;;;;;;;11.80;6.87;;;;;;;;;;5119168;28;20443;-79
2023/11/30 20:38:09;;;;;;;14.40;9.60;;;;;;;;;;5119585;28;20440;-79
2023/11/30 20:40:37;;;;;;;12.50;7.63;;;;;;;;;;5119559;28;20500;-79
2023/11/30 20:43:06;;;;;;;16.90;8.87;;;;;;;;;;5119232;28;20452;-78
2023/11/30 20:45:33;;;;;;;16.70;9.47;;;;;;;;;;5122692;28;20467;-78
2023/11/30 20:48:02;;;;;;;14.47;9.40;;;;;;;;;;5122597;28;20511;-79
2023/11/30 20:50:29;;;;;;;20.60;10.30;;;;;;;;;;5124134;28;20453;-78
2023/11/30 20:52:59;;;;;;;16.07;8.30;;;;;;;;;;5123594;28;20520;-78
2023/11/30 20:55:29;;;;;;;15.70;9.80;;;;;;;;;;5123178;28;20762;-79
2023/11/30 20:57:58;;;;;;;13.10;8.00;;;;;;;;;;5118423;28;20495;-80
2023/11/30 21:00:28;;;;;;;16.30;8.60;;;;;;;;;;5117208;28;20467;-78
2023/11/30 21:02:55;;;;;;;14.53;8.07;;;;;;;;;;5118692;28;20463;-79
2023/11/30 21:05:23;;;;;;;14.20;8.90;;;;;;;;;;5116961;28;20522;-78
2023/11/30 21:07:51;;;;;;;14.50;9.07;;;;;;;;;;5118563;28;20535;-79
2023/11/30 21:10:19;;;;;;;15.00;8.73;;;;;;;;;;5120132;28;20440;-79
2023/11/30 21:12:49;;;;;;;13.53;9.10;;;;;;;;;;5120491;28;20519;-78
2023/11/30 21:15:17;;;;;;;13.60;8.23;;;;;;;;;;5118275;28;20474;-81
2023/11/30 21:17:46;;;;;;;10.37;6.47;;;;;;;;;;5121064;28;20517;-77
2023/11/30 21:20:17;;;;;;;16.70;8.70;;;;;;;;;;5123110;28;20466;-78
2023/11/30 21:22:44;;;;;;;12.40;7.47;;;;;;;;;;5118386;28;20535;-79
2023/11/30 21:25:13;;;;;;;14.30;8.13;;;;;;;;;;5120496;28;20469;-78
2023/11/30 21:28:07;;;;;;;13.40;8.47;;;;;;;;;;5118971;28;20496;-78
2023/11/30 21:30:36;;;;;;;10.80;7.50;;;;;;;;;;5121558;28;20436;-78
2023/11/30 21:33:05;;;;;;;15.33;7.53;;;;;;;;;;5121488;28;20486;-79
2023/11/30 21:35:32;;;;;;;15.30;8.27;;;;;;;;;;5123470;28;20546;-79
2023/11/30 21:38:00;;;;;;;12.83;8.07;;;;;;;;;;5119260;28;20445;-79
2023/11/30 21:40:28;;;;;;;12.90;8.00;;;;;;;;;;5118340;28;20452;-80
2023/11/30 21:42:55;;;;;;;12.43;6.53;;;;;;;;;;5118450;28;20462;-78
2023/11/30 21:45:22;;;;;;;11.07;7.67;;;;;;;;;;5117880;28;20599;-81
2023/11/30 21:47:50;;;;;;;11.67;7.80;;;;;;;;;;5119820;28;20484;-79
2023/11/30 21:50:20;;;;;;;17.53;8.73;;;;;;;;;;5119561;28;20523;-81
2023/11/30 21:52:48;;;;;;;12.67;9.37;;;;;;;;;;5120881;28;20486;-79
2023/11/30 21:55:16;;;;;;;14.97;8.53;;;;;;;;;;5116696;28;20466;-78
2023/11/30 21:57:44;;;;;;;15.23;7.97;;;;;;;;;;5120436;28;20455;-81
2023/11/30 22:00:16;;;;;;;12.93;7.10;;;;;;;;;;5118038;28;20460;-79
2023/11/30 22:02:44;;;;;;;12.40;7.23;;;;;;;;;;5118342;28;20550;-79
2023/11/30 22:05:12;;;;;;;14.60;7.60;;;;;;;;;;5119809;28;21094;-79
2023/11/30 22:07:43;;;;;;;11.70;7.40;;;;;;;;;;5119232;28;20752;-79
2023/11/30 22:10:11;;;;;;;12.53;7.90;;;;;;;;;;5126041;28;20447;-78
2023/11/30 22:12:41;;;;;;;15.57;8.07;;;;;;;;;;5121525;28;20463;-78
2023/11/30 22:15:09;;;;;;;16.47;9.23;;;;;;;;;;5121730;28;20686;-80
2023/11/30 22:17:36;;;;;;;12.90;7.57;;;;;;;;;;5120169;28;20440;-78
2023/11/30 22:20:09;;;;;;;14.27;8.57;;;;;;;;;;5122477;28;20464;-80
2023/11/30 22:22:36;;;;;;;10.47;7.37;;;;;;;;;;5120439;28;20464;-78
2023/11/30 22:25:06;;;;;;;14.63;7.43;;;;;;;;;;5119429;28;20455;-79
2023/11/30 22:27:33;;;;;;;11.87;7.80;;;;;;;;;;5119297;28;20506;-79
2023/11/30 22:30:08;;;;;;;11.33;7.00;;;;;;;;;;5118930;28;20451;-80
2023/11/30 22:32:36;;;;;;;12.60;7.90;;;;;;;;;;5118273;28;20554;-80
2023/11/30 22:35:03;;;;;;;14.50;8.40;;;;;;;;;;5118231;28;20494;-80
2023/11/30 22:37:31;;;;;;;15.53;9.20;;;;;;;;;;5115968;28;20475;-80
2023/11/30 22:39:58;;;;;;;12.30;7.07;;;;;;;;;;5116220;28;20433;-79
2023/11/30 22:42:27;;;;;;;12.40;7.83;;;;;;;;;;5116327;28;20528;-80
2023/11/30 22:45:00;;;;;;;14.00;8.07;;;;;;;;;;5116499;28;20966;-79
2023/11/30 22:47:30;;;;;;;13.40;7.30;;;;;;;;;;5118156;28;20580;-80
2023/11/30 22:49:57;;;;;;;11.07;7.07;;;;;;;;;;5117967;28;20451;-80
2023/11/30 22:52:25;;;;;;;13.80;7.90;;;;;;;;;;5120862;28;20731;-80
2023/11/30 22:54:53;;;;;;;12.10;7.70;;;;;;;;;;5119852;28;20440;-78
2023/11/30 22:57:20;;;;;;;12.60;8.23;;;;;;;;;;5121121;28;20443;-79
2023/11/30 22:59:48;;;;;;;13.60;8.17;;;;;;;;;;5123049;28;20440;-80
2023/11/30 23:02:18;;;;;;;14.63;8.67;;;;;;;;;;5120299;28;20451;-80
2023/11/30 23:04:45;;;;;;;16.17;7.83;;;;;;;;;;5121543;28;20479;-79
2023/11/30 23:07:13;;;;;;;13.73;8.20;;;;;;;;;;5118731;28;20487;-79
2023/11/30 23:09:40;;;;;;;12.50;7.80;;;;;;;;;;5119700;28;20546;-80
2023/11/30 23:12:08;;;;;;;12.03;7.90;;;;;;;;;;5120872;28;20588;-79
2023/11/30 23:14:36;;;;;;;11.47;7.53;;;;;;;;;;5119555;28;20544;-79
2023/11/30 23:17:03;;;;;;;14.33;7.60;;;;;;;;;;5122302;28;20515;-77
2023/11/30 23:19:32;;;;;;;12.90;8.93;;;;;;;;;;5120381;28;20455;-80
2023/11/30 23:21:59;;;;;;;13.33;8.33;;;;;;;;;;5123323;28;20460;-79
2023/11/30 23:24:27;;;;;;;13.37;7.70;;;;;;;;;;5121053;28;20484;-79
2023/11/30 23:26:54;;;;;;;15.27;8.93;;;;;;;;;;5122115;28;20534;-78
2023/11/30 23:29:22;;;;;;;13.47;8.87;;;;;;;;;;5120273;28;20691;-79
2023/11/30 23:31:49;;;;;;;12.90;8.43;;;;;;;;;;5120501;28;20466;-79
2023/11/30 23:34:17;;;;;;;12.83;7.63;;;;;;;;;;5123319;28;20477;-79
2023/11/30 23:36:46;;;;;;;15.70;8.87;;;;;;;;;;5124747;28;20459;-79
2023/11/30 23:39:14;;;;;;;13.03;8.60;;;;;;;;;;5122710;28;20554;-80
2023/11/30 23:41:41;;;;;;;16.00;8.63;;;;;;;;;;5119861;28;20550;-79
2023/11/30 23:44:08;;;;;;;10.13;6.50;;;;;;;;;;5121029;28;20551;-78
2023/11/30 23:46:36;;;;;;;14.30;8.60;;;;;;;;;;5122973;28;20445;-79
2023/11/30 23:49:04;;;;;;;13.43;8.90;;;;;;;;;;5120196;28;20586;-80
2023/11/30 23:51:31;;;;;;;12.70;7.40;;;;;;;;;;5120660;28;20469;-78
2023/11/30 23:54:00;;;;;;;14.33;8.50;;;;;;;;;;5125037;28;20530;-79
2023/11/30 23:56:27;;;;;;;11.93;7.20;;;;;;;;;;5124950;28;20444;-79
2023/11/30 23:58:55;;;;;;;13.27;9.50;;;;;;;;;;5124876;28;20799;-79
